createdAt,value
2022-08-17T00:00:07.004Z,68.70
2022-08-17T00:02:38.308Z,69.17
2022-08-17T00:04:50.336Z,69.03
2022-08-17T00:06:52.667Z,69.57
2022-08-17T00:08:59.485Z,68.73
2022-08-17T00:11:07.118Z,68.59
2022-08-17T00:13:21.848Z,68.48
2022-08-17T00:15:24.922Z,68.28
2022-08-17T00:17:27.173Z,68.24
2022-08-17T00:19:29.875Z,68.85
2022-08-17T00:22:29.621Z,69.18
2022-08-17T00:23:56.517Z,68.93
2022-08-17T00:25:58.960Z,68.67
2022-08-17T00:28:01.278Z,68.35
2022-08-17T00:30:06.732Z,68.31
2022-08-17T00:33:12.501Z,68.32
2022-08-17T00:34:30.817Z,68.50
2022-08-17T00:36:34.449Z,68.57
2022-08-17T00:38:37.048Z,68.68
2022-08-17T00:40:50.436Z,68.69
2022-08-17T00:42:54.137Z,68.50
2022-08-17T00:44:56.252Z,68.04
2022-08-17T00:46:58.381Z,68.18
2022-08-17T00:49:00.832Z,68.37
2022-08-17T00:51:09.173Z,68.21
2022-08-17T00:53:12.021Z,68.14
2022-08-17T00:55:14.532Z,68.22
2022-08-17T00:57:41.428Z,68.27
2022-08-17T01:00:02.109Z,68.21
2022-08-17T01:02:09.931Z,68.47
2022-08-17T01:04:13.856Z,68.39
2022-08-17T01:06:16.089Z,68.38
2022-08-17T01:08:22.272Z,68.27
2022-08-17T01:10:59.609Z,68.39
2022-08-17T01:13:06.200Z,68.83
2022-08-17T01:15:08.904Z,68.90
2022-08-17T01:17:11.229Z,69.12
2022-08-17T01:19:19.462Z,69.01
2022-08-17T01:21:34.145Z,68.66
2022-08-17T01:23:36.920Z,68.84
2022-08-17T01:25:40.308Z,68.95
2022-08-17T01:27:43.067Z,69.40
2022-08-17T01:29:50.425Z,69.79
2022-08-17T01:32:01.101Z,69.62
2022-08-17T01:34:08.713Z,69.80
2022-08-17T01:36:10.847Z,70.14
2022-08-17T01:38:13.012Z,70.33
2022-08-17T01:40:23.169Z,70.45
2022-08-17T01:42:43.873Z,70.05
2022-08-17T01:44:45.915Z,70.28
2022-08-17T01:46:48.102Z,70.55
2022-08-17T01:48:50.453Z,70.38
2022-08-17T01:50:52.517Z,70.38
2022-08-17T01:53:03.533Z,70.96
2022-08-17T01:55:07.111Z,70.34
2022-08-17T01:57:09.614Z,69.80
2022-08-17T01:59:12.829Z,69.88
2022-08-17T02:01:23.744Z,69.89
2022-08-17T02:03:26.172Z,70.31
2022-08-17T02:05:28.550Z,70.46
2022-08-17T02:07:30.687Z,70.78
2022-08-17T02:09:32.846Z,71.01
2022-08-17T02:11:37.541Z,71.07
2022-08-17T02:13:39.627Z,71.61
2022-08-17T02:15:41.687Z,71.78
2022-08-17T02:17:44.601Z,70.96
2022-08-17T02:19:46.625Z,70.98
2022-08-17T02:21:52.501Z,70.50
2022-08-17T02:23:56.017Z,70.59
2022-08-17T02:25:59.971Z,70.67
2022-08-17T02:28:03.423Z,71.11
2022-08-17T02:31:02.253Z,71.00
2022-08-17T02:32:33.032Z,71.11
2022-08-17T02:34:35.017Z,71.09
2022-08-17T02:36:37.938Z,70.89
2022-08-17T02:38:41.782Z,70.45
2022-08-17T02:40:43.870Z,69.76
2022-08-17T02:42:47.910Z,69.82
2022-08-17T02:44:50.012Z,69.30
2022-08-17T02:46:51.973Z,69.86
2022-08-17T02:48:54.295Z,69.40
2022-08-17T02:50:56.246Z,69.38
2022-08-17T02:53:01.665Z,69.34
2022-08-17T02:55:11.682Z,69.40
2022-08-17T02:57:13.992Z,70.05
2022-08-17T02:59:16.130Z,70.58
2022-08-17T03:01:18.429Z,70.94
2022-08-17T03:03:20.453Z,70.60
2022-08-17T03:05:26.498Z,69.97
2022-08-17T03:07:28.909Z,69.88
2022-08-17T03:09:31.586Z,70.32
2022-08-17T03:11:33.736Z,70.10
2022-08-17T03:13:36.575Z,70.12
2022-08-17T03:15:38.704Z,70.29
2022-08-17T03:17:46.373Z,70.82
2022-08-17T03:19:48.641Z,70.96
2022-08-17T03:21:55.388Z,70.88
2022-08-17T03:23:57.571Z,70.34
2022-08-17T03:26:00.243Z,70.53
2022-08-17T03:28:04.679Z,70.62
2022-08-17T03:30:09.307Z,70.72
2022-08-17T03:32:16.872Z,70.48
2022-08-17T03:34:18.921Z,70.59
2022-08-17T03:36:20.943Z,70.22
2022-08-17T03:38:23.458Z,70.72
2022-08-17T03:40:55.089Z,71.12
2022-08-17T03:42:48.810Z,71.64
2022-08-17T03:44:53.093Z,71.97
2022-08-17T03:46:59.798Z,71.93
2022-08-17T03:49:07.972Z,71.64
2022-08-17T03:51:23.321Z,71.81
2022-08-17T03:53:25.400Z,71.89
2022-08-17T03:55:30.772Z,72.01
2022-08-17T03:57:38.599Z,71.96
2022-08-17T03:59:41.163Z,71.69
2022-08-17T04:01:46.660Z,71.58
2022-08-17T04:03:48.920Z,71.49
2022-08-17T04:05:50.914Z,71.28
2022-08-17T04:07:52.947Z,71.19
2022-08-17T04:09:55.440Z,71.33
2022-08-17T04:11:57.551Z,71.71
2022-08-17T04:14:07.248Z,71.81
2022-08-17T04:16:09.667Z,71.91
2022-08-17T04:18:11.731Z,72.01
2022-08-17T04:20:16.831Z,71.56
2022-08-17T04:22:32.068Z,71.32
2022-08-17T04:24:35.927Z,70.67
2022-08-17T04:26:52.667Z,70.48
2022-08-17T04:28:57.697Z,69.93
2022-08-17T04:30:59.791Z,69.96
2022-08-17T04:33:13.045Z,69.10
2022-08-17T04:35:25.480Z,68.96
2022-08-17T04:37:27.531Z,69.07
2022-08-17T04:39:29.525Z,68.70
2022-08-17T04:41:31.831Z,68.49
2022-08-17T04:43:35.872Z,69.12
2022-08-17T04:45:55.496Z,67.90
2022-08-17T04:48:00.223Z,67.08
2022-08-17T04:50:02.189Z,65.75
2022-08-17T04:52:04.888Z,64.28
2022-08-17T04:54:15.063Z,63.23
2022-08-17T04:56:18.304Z,62.18
2022-08-17T04:58:21.463Z,60.91
2022-08-17T05:00:24.272Z,59.60
2022-08-17T05:02:26.231Z,59.65
2022-08-17T05:04:33.910Z,58.55
2022-08-17T05:06:37.805Z,57.19
2022-08-17T05:08:40.048Z,56.49
2022-08-17T05:10:45.542Z,55.70
2022-08-17T05:12:48.196Z,54.07
2022-08-17T05:14:50.251Z,53.58
2022-08-17T05:16:52.295Z,52.44
2022-08-17T05:18:55.633Z,51.31
2022-08-17T05:20:58.149Z,50.46
2022-08-17T05:23:04.443Z,49.50
2022-08-17T05:25:07.184Z,48.17
2022-08-17T05:27:09.291Z,47.67
2022-08-17T05:29:11.331Z,46.75
2022-08-17T05:31:14.431Z,45.91
2022-08-17T05:33:24.663Z,45.17
2022-08-17T05:35:29.688Z,44.66
2022-08-17T05:37:32.233Z,43.66
2022-08-17T05:39:34.668Z,43.27
2022-08-17T05:41:36.743Z,42.10
2022-08-17T05:43:42.223Z,41.93
2022-08-17T05:46:04.808Z,41.84
2022-08-17T05:48:09.049Z,40.81
2022-08-17T05:50:42.079Z,40.43
2022-08-17T05:53:06.648Z,40.41
2022-08-17T05:55:30.441Z,40.62
2022-08-17T05:57:53.877Z,40.13
2022-08-17T06:00:20.194Z,39.33
2022-08-17T06:02:37.810Z,39.37
2022-08-17T06:05:09.105Z,38.87
2022-08-17T06:07:37.247Z,38.87
2022-08-17T06:10:21.584Z,38.83
2022-08-17T06:13:27.300Z,38.67
2022-08-17T06:15:59.058Z,38.05
2022-08-17T06:18:10.013Z,37.53
2022-08-17T06:20:17.719Z,37.70
2022-08-17T06:22:32.673Z,37.44
2022-08-17T06:24:52.304Z,37.22
2022-08-17T06:26:59.641Z,36.78
2022-08-17T06:29:18.693Z,37.17
2022-08-17T06:32:12.666Z,36.89
2022-08-17T06:34:15.878Z,37.25
2022-08-17T06:36:46.905Z,37.62
2022-08-17T06:39:39.231Z,37.54
2022-08-17T06:43:04.105Z,37.02
2022-08-17T06:45:42.946Z,37.99
2022-08-17T06:48:05.198Z,37.95
2022-08-17T06:53:36.005Z,37.91
2022-08-17T06:56:02.902Z,37.31
2022-08-17T06:58:16.186Z,37.75
2022-08-17T07:00:44.881Z,38.81
2022-08-17T07:03:21.066Z,37.99
2022-08-17T07:05:47.179Z,38.31
2022-08-17T07:08:34.862Z,38.27
2022-08-17T07:10:47.891Z,38.71
2022-08-17T07:12:57.114Z,38.58
2022-08-17T07:15:27.546Z,38.62
2022-08-17T07:17:46.813Z,38.42
2022-08-17T07:20:09.769Z,38.71
2022-08-17T07:22:57.203Z,38.06
2022-08-17T07:25:11.370Z,38.40
2022-08-17T07:27:29.381Z,37.95
2022-08-17T07:29:47.001Z,38.98
2022-08-17T07:31:49.750Z,39.39
2022-08-17T07:34:59.551Z,38.92
2022-08-17T07:37:07.860Z,39.22
2022-08-17T07:39:13.101Z,39.59
2022-08-17T07:41:20.441Z,39.68
2022-08-17T07:43:39.761Z,39.63
2022-08-17T07:46:11.230Z,39.54
2022-08-17T07:48:21.260Z,39.25
2022-08-17T07:50:29.611Z,39.39
2022-08-17T07:52:51.998Z,38.83
2022-08-17T07:54:54.782Z,38.36
2022-08-17T07:57:12.230Z,38.47
2022-08-17T07:59:23.807Z,38.74
2022-08-17T08:01:26.441Z,38.40
2022-08-17T08:03:45.710Z,38.57
2022-08-17T08:06:01.169Z,38.16
2022-08-17T08:08:23.080Z,38.82
2022-08-17T08:10:36.280Z,38.29
2022-08-17T08:12:42.702Z,37.45
2022-08-17T08:15:14.612Z,38.23
2022-08-17T08:17:26.620Z,37.57
2022-08-17T08:19:30.970Z,38.72
2022-08-17T08:21:56.914Z,38.56
2022-08-17T08:24:21.062Z,37.60
2022-08-17T08:26:38.370Z,37.35
2022-08-17T08:29:20.323Z,37.77
2022-08-17T08:31:59.038Z,37.36
2022-08-17T08:35:01.145Z,37.76
2022-08-17T08:37:35.785Z,37.61
2022-08-17T08:39:56.943Z,36.38
2022-08-17T08:42:04.981Z,36.45
2022-08-17T08:45:00.263Z,37.22
2022-08-17T08:47:44.391Z,38.10
2022-08-17T08:50:38.017Z,37.83
2022-08-17T08:53:31.131Z,38.91
2022-08-17T08:55:53.576Z,38.28
2022-08-17T08:58:30.626Z,38.92
2022-08-17T09:00:40.741Z,38.56
2022-08-17T09:03:13.790Z,39.29
2022-08-17T09:05:46.310Z,38.99
2022-08-17T09:08:16.971Z,37.63
2022-08-17T09:10:33.941Z,38.05
2022-08-17T09:12:42.022Z,37.01
2022-08-17T09:15:15.611Z,36.49
2022-08-17T09:18:08.622Z,34.99
2022-08-17T09:20:31.211Z,36.35
2022-08-17T09:22:41.563Z,36.13
2022-08-17T09:24:57.128Z,36.72
2022-08-17T09:27:18.111Z,37.12
2022-08-17T09:29:23.641Z,37.97
2022-08-17T09:31:33.911Z,38.10
2022-08-17T09:33:47.101Z,37.65
2022-08-17T09:35:56.711Z,37.80
2022-08-17T09:38:31.747Z,38.28
2022-08-17T09:40:51.480Z,37.96
2022-08-17T09:43:08.551Z,38.28
2022-08-17T09:45:33.901Z,38.56
2022-08-17T09:48:18.590Z,37.27
2022-08-17T09:51:05.454Z,37.71
2022-08-17T09:53:09.602Z,37.31
2022-08-17T09:55:12.593Z,37.20
2022-08-17T09:57:49.968Z,37.79
2022-08-17T10:00:16.815Z,37.44
2022-08-17T10:02:47.320Z,36.70
2022-08-17T10:05:06.451Z,37.18
2022-08-17T10:07:30.572Z,38.00
2022-08-17T10:09:49.493Z,36.96
2022-08-17T10:12:11.292Z,37.98
2022-08-17T10:14:38.048Z,37.95
2022-08-17T10:17:09.280Z,37.95
2022-08-17T10:20:04.487Z,36.58
2022-08-17T10:22:35.272Z,37.26
2022-08-17T10:25:23.153Z,37.65
2022-08-17T10:27:15.200Z,37.34
2022-08-17T10:29:49.843Z,37.06
2022-08-17T10:31:59.950Z,36.96
2022-08-17T10:34:27.957Z,36.43
2022-08-17T10:36:55.732Z,36.71
2022-08-17T10:39:16.149Z,36.67
2022-08-17T10:41:29.410Z,37.55
2022-08-17T10:44:37.398Z,38.00
2022-08-17T10:46:44.993Z,38.07
2022-08-17T10:49:19.099Z,36.26
2022-08-17T10:51:40.021Z,36.55
2022-08-17T10:53:49.520Z,35.32
2022-08-17T10:56:15.351Z,36.64
2022-08-17T10:58:21.985Z,36.00
2022-08-17T11:00:27.536Z,35.27
2022-08-17T11:02:52.807Z,36.14
2022-08-17T11:05:11.840Z,36.16
2022-08-17T11:07:38.903Z,36.69
2022-08-17T11:10:09.311Z,36.75
2022-08-17T11:12:50.836Z,36.10
2022-08-17T11:15:01.130Z,35.39
2022-08-17T11:17:35.178Z,33.74
2022-08-17T11:19:45.023Z,34.53
2022-08-17T11:22:22.160Z,34.21
2022-08-17T11:24:45.533Z,33.52
2022-08-17T11:27:15.640Z,33.15
2022-08-17T11:29:24.869Z,32.81
2022-08-17T11:31:44.991Z,32.33
2022-08-17T11:34:15.451Z,31.51
2022-08-17T11:36:53.702Z,30.69
2022-08-17T11:39:27.941Z,30.46
2022-08-17T11:42:09.591Z,31.04
2022-08-17T11:44:50.675Z,30.75
2022-08-17T11:47:29.645Z,31.84
2022-08-17T11:50:00.079Z,31.68
2022-08-17T11:52:02.429Z,30.97
2022-08-17T11:54:33.375Z,30.77
2022-08-17T11:56:50.051Z,30.20
2022-08-17T11:58:52.540Z,29.75
2022-08-17T12:01:31.758Z,30.26
2022-08-17T12:03:34.374Z,30.77
2022-08-17T12:05:37.058Z,30.56
2022-08-17T12:07:47.909Z,30.55
2022-08-17T12:09:54.119Z,29.96
2022-08-17T12:12:27.458Z,30.19
2022-08-17T12:15:07.922Z,30.11
2022-08-17T12:17:09.205Z,30.17
2022-08-17T12:19:20.380Z,30.45
2022-08-17T12:21:40.971Z,30.94
2022-08-17T12:24:04.749Z,30.36
2022-08-17T12:26:25.509Z,30.30
2022-08-17T12:28:32.848Z,30.50
2022-08-17T12:30:37.940Z,31.35
2022-08-17T12:32:40.603Z,31.49
2022-08-17T12:34:44.679Z,31.91
2022-08-17T12:36:51.208Z,31.15
2022-08-17T12:39:14.272Z,31.75
2022-08-17T12:41:43.989Z,31.84
2022-08-17T12:44:19.941Z,30.92
2022-08-17T12:46:22.288Z,32.14
2022-08-17T12:48:29.073Z,30.96
2022-08-17T12:50:42.850Z,31.16
2022-08-17T12:52:49.129Z,31.15
2022-08-17T12:55:04.807Z,30.67
2022-08-17T12:57:37.918Z,31.63
2022-08-17T12:59:46.092Z,31.65
2022-08-17T13:01:48.670Z,31.68
2022-08-17T13:03:54.762Z,31.04
2022-08-17T13:06:07.368Z,31.06
2022-08-17T13:08:21.650Z,31.50
2022-08-17T13:10:33.678Z,31.00
2022-08-17T13:12:36.469Z,31.27
2022-08-17T13:14:46.281Z,31.11
2022-08-17T13:19:50.018Z,31.05
2022-08-17T13:21:57.280Z,31.19
2022-08-17T13:24:21.360Z,32.15
2022-08-17T13:26:34.518Z,32.20
2022-08-17T13:28:37.152Z,32.65
2022-08-17T13:30:39.953Z,32.81
2022-08-17T13:32:45.752Z,32.92
2022-08-17T13:35:12.491Z,33.51
2022-08-17T13:37:36.926Z,34.17
2022-08-17T13:39:43.418Z,34.49
2022-08-17T13:41:48.669Z,33.84
2022-08-17T13:43:51.389Z,33.59
2022-08-17T13:45:53.809Z,32.17
2022-08-17T13:48:13.579Z,32.68
2022-08-17T13:50:21.429Z,32.34
2022-08-17T13:52:39.127Z,32.57
2022-08-17T13:54:41.638Z,31.71
2022-08-17T13:57:20.553Z,31.88
2022-08-17T13:59:54.172Z,31.71
2022-08-17T14:01:58.939Z,31.97
2022-08-17T14:04:15.534Z,32.19
2022-08-17T14:06:52.631Z,32.04
2022-08-17T14:08:40.525Z,31.02
2022-08-17T14:10:43.162Z,31.00
2022-08-17T14:12:46.068Z,30.95
2022-08-17T14:14:48.758Z,31.85
2022-08-17T14:16:54.305Z,31.31
2022-08-17T14:18:57.476Z,32.23
2022-08-17T14:21:00.134Z,31.18
2022-08-17T14:23:02.457Z,32.58
2022-08-17T14:25:06.274Z,31.66
2022-08-17T14:27:13.296Z,32.02
2022-08-17T14:29:15.807Z,31.39
2022-08-17T14:31:18.014Z,31.55
2022-08-17T14:33:20.771Z,31.59
2022-08-17T14:35:23.665Z,31.80
2022-08-17T14:37:29.264Z,31.55
2022-08-17T14:39:31.823Z,31.77
2022-08-17T14:41:34.434Z,32.75
2022-08-17T14:43:38.464Z,33.21
2022-08-17T14:45:41.546Z,32.58
2022-08-17T14:47:43.995Z,32.82
2022-08-17T14:49:47.684Z,33.51
2022-08-17T14:51:50.365Z,33.56
2022-08-17T14:53:52.616Z,34.07
2022-08-17T14:55:54.885Z,33.87
2022-08-17T14:57:57.496Z,34.19
2022-08-17T15:00:00.471Z,34.58
2022-08-17T15:02:03.774Z,34.21
2022-08-17T15:04:06.247Z,34.35
2022-08-17T15:06:09.656Z,34.33
2022-08-17T15:08:12.384Z,33.61
2022-08-17T15:10:16.104Z,33.76
2022-08-17T15:12:22.978Z,34.04
2022-08-17T15:14:25.154Z,33.49
2022-08-17T15:16:47.086Z,33.45
2022-08-17T15:19:06.839Z,33.46
2022-08-17T15:21:09.605Z,33.56
2022-08-17T15:23:17.925Z,33.52
2022-08-17T15:25:20.074Z,33.36
2022-08-17T15:27:31.504Z,33.39
2022-08-17T15:29:35.258Z,32.68
2022-08-17T15:31:39.498Z,33.17
2022-08-17T15:33:41.799Z,33.98
2022-08-17T15:35:45.015Z,33.52
2022-08-17T15:37:47.192Z,33.54
2022-08-17T15:39:49.642Z,34.01
2022-08-17T15:41:58.132Z,33.59
2022-08-17T15:44:01.026Z,33.42
2022-08-17T15:46:20.997Z,33.37
2022-08-17T15:48:23.808Z,32.92
2022-08-17T15:50:26.515Z,33.36
2022-08-17T15:52:29.226Z,32.38
2022-08-17T15:54:34.592Z,32.64
2022-08-17T15:56:39.426Z,33.04
2022-08-17T15:58:44.295Z,33.07
2022-08-17T16:00:53.146Z,33.83
2022-08-17T16:03:47.027Z,33.63
2022-08-17T16:05:32.124Z,34.56
2022-08-17T16:07:34.617Z,35.22
2022-08-17T16:09:36.965Z,35.36
2022-08-17T16:11:39.148Z,35.35
2022-08-17T16:13:54.870Z,35.44
2022-08-17T16:15:58.534Z,36.24
2022-08-17T16:18:00.722Z,36.04
2022-08-17T16:22:48.806Z,36.71
2022-08-17T16:34:51.615Z,37.32
2022-08-17T16:39:28.120Z,37.26
2022-08-17T16:41:34.444Z,37.26
2022-08-17T16:43:36.616Z,37.22
2022-08-17T16:46:04.704Z,37.45
2022-08-17T17:01:49.483Z,38.52
2022-08-17T17:03:58.231Z,38.93
2022-08-17T17:06:15.505Z,39.16
2022-08-17T17:08:26.774Z,38.77
2022-08-17T17:10:48.684Z,38.82
2022-08-17T17:13:03.840Z,39.09
2022-08-17T17:15:07.700Z,39.11
2022-08-17T17:17:21.705Z,39.21
2022-08-17T17:19:39.516Z,39.01
2022-08-17T17:22:10.904Z,39.05
2022-08-17T17:24:33.067Z,39.21
2022-08-17T17:27:14.045Z,39.10
2022-08-17T17:29:16.534Z,39.59
2022-08-17T17:31:23.144Z,39.30
2022-08-17T17:33:48.578Z,40.30
2022-08-17T17:35:57.015Z,41.46
2022-08-17T17:38:12.443Z,40.94
2022-08-17T17:40:22.811Z,41.52
2022-08-17T17:42:30.056Z,41.71
2022-08-17T17:44:42.714Z,41.61
2022-08-17T17:46:55.975Z,41.23
2022-08-17T17:48:58.595Z,41.11
2022-08-17T17:52:02.863Z,41.37
2022-08-17T17:54:16.236Z,42.44
2022-08-17T17:57:01.714Z,43.19
2022-08-17T17:59:13.071Z,42.87
2022-08-17T18:01:31.667Z,42.75
2022-08-17T18:04:20.281Z,42.89
2022-08-17T18:06:42.104Z,42.80
2022-08-17T18:09:10.190Z,43.02
2022-08-17T18:11:51.408Z,43.22
2022-08-17T18:14:46.636Z,43.55
2022-08-17T18:17:04.295Z,43.36
2022-08-17T18:19:19.375Z,43.43
2022-08-17T18:21:36.465Z,43.29
2022-08-17T18:23:47.216Z,43.76
2022-08-17T18:26:13.304Z,44.00
2022-08-17T18:28:36.968Z,43.88
2022-08-17T18:30:39.186Z,44.18
2022-08-17T18:32:50.734Z,44.06
2022-08-17T18:53:33.931Z,46.24
2022-08-17T18:55:41.734Z,46.43
2022-08-17T18:57:57.442Z,46.19
2022-08-17T19:00:13.464Z,46.22
2022-08-17T19:02:45.118Z,46.42
2022-08-17T19:05:36.976Z,46.33
2022-08-17T19:07:47.944Z,46.03
2022-08-17T19:10:21.645Z,46.18
2022-08-17T19:12:42.261Z,46.21
2022-08-17T19:14:49.212Z,46.17
2022-08-17T19:20:03.799Z,46.42
2022-08-17T19:22:30.924Z,46.45
2022-08-17T19:24:35.254Z,46.64
2022-08-17T19:27:02.024Z,46.75
2022-08-17T19:29:50.837Z,46.86
2022-08-17T19:31:59.098Z,47.22
2022-08-17T19:34:02.855Z,47.35
2022-08-17T19:36:23.505Z,47.51
2022-08-17T19:38:56.414Z,47.47
2022-08-17T19:41:21.641Z,47.52
2022-08-17T19:44:05.702Z,47.26
2022-08-17T19:46:49.849Z,47.47
2022-08-17T19:49:15.095Z,47.29
2022-08-17T19:51:49.374Z,47.27
2022-08-17T19:54:34.097Z,46.98
2022-08-17T19:56:56.986Z,47.23
2022-08-17T19:59:16.236Z,47.88
2022-08-17T20:01:52.608Z,47.56
2022-08-17T20:04:45.069Z,47.00
2022-08-17T20:06:50.437Z,46.85
2022-08-17T20:09:24.382Z,47.05
2022-08-17T20:12:00.696Z,47.10
2022-08-17T20:14:17.079Z,47.56
2022-08-17T20:16:20.565Z,48.23
2022-08-17T20:18:44.018Z,48.62
2022-08-17T20:21:01.764Z,48.41
2022-08-17T20:23:33.436Z,48.45
2022-08-17T20:25:59.295Z,48.55
2022-08-17T20:28:35.347Z,48.62
2022-08-17T20:30:42.805Z,48.44
2022-08-17T20:33:00.376Z,48.59
2022-08-17T20:35:22.632Z,48.33
2022-08-17T20:37:31.629Z,48.78
2022-08-17T20:39:37.662Z,49.05
2022-08-17T20:42:24.245Z,48.92
2022-08-17T20:44:47.427Z,48.90
2022-08-17T20:47:15.577Z,48.96
2022-08-17T20:49:27.951Z,48.99
2022-08-17T20:52:01.142Z,49.00
2022-08-17T20:54:27.614Z,49.03
2022-08-17T20:56:46.758Z,49.16
2022-08-17T21:00:00.289Z,49.12
2022-08-17T21:02:18.590Z,48.98
2022-08-17T21:04:50.654Z,49.31
2022-08-17T21:07:41.032Z,49.67
2022-08-17T21:09:46.548Z,49.79
2022-08-17T21:12:04.435Z,50.12
2022-08-17T21:14:26.733Z,50.79
2022-08-17T21:17:02.359Z,50.96
2022-08-17T21:19:54.202Z,51.48
2022-08-17T21:22:28.042Z,51.79
2022-08-17T21:25:01.654Z,52.12
2022-08-17T21:27:31.827Z,52.04
2022-08-17T21:29:40.309Z,52.68
2022-08-17T21:31:57.714Z,52.48
2022-08-17T21:34:16.627Z,52.44
2022-08-17T21:36:25.731Z,52.51
2022-08-17T21:38:40.599Z,52.82
2022-08-17T21:40:51.558Z,52.54
2022-08-17T21:43:19.537Z,52.82
2022-08-17T21:45:33.734Z,52.85
2022-08-17T21:47:47.369Z,52.92
2022-08-17T21:49:52.009Z,52.52
2022-08-17T21:51:56.536Z,52.79
2022-08-17T21:54:03.332Z,52.60
2022-08-17T21:56:07.102Z,52.85
2022-08-17T21:58:34.549Z,52.86
2022-08-17T22:00:36.875Z,53.15
2022-08-17T22:02:41.859Z,53.28
2022-08-17T22:04:57.180Z,53.14
2022-08-17T22:07:03.896Z,53.26
2022-08-17T22:09:37.280Z,53.30
2022-08-17T22:12:05.717Z,53.77
2022-08-17T22:14:18.208Z,53.73
2022-08-17T22:16:28.301Z,53.52
2022-08-17T22:18:32.047Z,53.66
2022-08-17T22:20:34.879Z,53.46
2022-08-17T22:22:46.284Z,53.90
2022-08-17T22:24:57.417Z,53.82
2022-08-17T22:27:11.100Z,54.05
2022-08-17T22:29:57.133Z,54.15
2022-08-17T22:32:00.045Z,53.97
2022-08-17T22:34:02.048Z,53.98
2022-08-17T22:36:48.594Z,54.37
2022-08-17T22:38:58.961Z,54.71
2022-08-17T22:41:28.846Z,54.76
2022-08-17T22:43:31.156Z,54.62
2022-08-17T22:45:46.412Z,55.25
2022-08-17T22:47:49.741Z,55.47
2022-08-17T22:49:59.346Z,55.79
2022-08-17T22:52:24.263Z,55.93
2022-08-17T22:54:32.477Z,55.55
2022-08-17T22:56:34.963Z,55.94
2022-08-17T22:58:58.828Z,55.67
2022-08-17T23:01:32.275Z,55.92
2022-08-17T23:03:55.134Z,56.50
2022-08-17T23:06:11.724Z,57.12
2022-08-17T23:08:15.727Z,57.08
2022-08-17T23:10:17.996Z,57.15
2022-08-17T23:12:26.646Z,57.23
2022-08-17T23:14:29.074Z,57.63
2022-08-17T23:16:31.101Z,57.50
2022-08-17T23:18:33.527Z,57.42
2022-08-17T23:20:37.865Z,57.48
2022-08-17T23:22:51.417Z,57.33
2022-08-17T23:24:55.253Z,57.74
2022-08-17T23:26:58.061Z,57.49
2022-08-17T23:29:00.134Z,57.82
2022-08-17T23:31:02.405Z,57.67
2022-08-17T23:33:09.315Z,57.65
2022-08-17T23:35:11.531Z,57.20
2022-08-17T23:37:14.330Z,57.38
2022-08-17T23:39:16.966Z,57.54
2022-08-17T23:41:36.136Z,57.92
2022-08-17T23:43:53.140Z,58.58
2022-08-17T23:45:59.291Z,58.88
2022-08-17T23:48:01.671Z,59.77
2022-08-17T23:50:04.262Z,59.72
2022-08-17T23:52:09.951Z,59.60
2022-08-17T23:54:35.710Z,59.89
2022-08-17T23:56:39.052Z,60.05
2022-08-17T23:58:43.248Z,60.27
